Big Springs, Idaho
Current Conditions -  °F | °C
As of 11:55 PM on Saturday 25 Oct 2014 (Local Time) from KWYS Reporting Station
Overcast Overcast  
Wind Chill: 36°   Ceiling: 3900
Heat Index: 41°   Visibility: 7mi
Dew Point: 41°   Wind: 8mph
Humidity: 100%   Direction: 240°WSW
Pressure: 29.92"   Gusts: NA
Location:  44.4984°N, 111.255°W
Report Text: KWYS 260555Z AUTO 24007KT 7SM SCT033 BKN039 OVC070 05/05 A2992 RMK AO2 P0003
Loading
Personal Weather Stations






























Interactive Weather Map
Tropical Storm Tracking
New forecast layout! Learn more

10-Day Weather Forecast

Advertisements
Track Severe Weather on mobile